Amy-c — MKWC7 — position and weather

sailwx.info

Track history (hours):
 
Tides and Currents Weather Stations Pressure Air Temp Water Temp Dewpoint Dewpoint Depression Visibility Wind Speed Wind Dir Waves Ship Positions

Amy-c

Last reported at 2015-Jul-03 05:17 UTC. Time now 2015-Jul-05 07:47 UTC.
Position N 55°18' W 006°44'.

Length 137 m; draft 8.6 m.

Type: Cargo ship. MMSI: 235010170.

Date/timePositionNaut miles runAvg speedWind from/ knotsBaromVisibWave heightAir tempDewpointWater temp
2015-Jul-03 05:17N 55°18' W 006°44'4 4.9
2015-Jul-03 04:33N 55°22' W 006°41'2 2.3
2015-Jul-03 03:33N 55°22' W 006°37'8 7.7
2015-Jul-03 02:34N 55°25' W 006°25'1414.0
2015-Jul-03 01:34N 55°23' W 006°01'1615.8
2015-Jul-03 00:34N 55°10' W 005°45'1414.1
2015-Jul-02 23:33N 54°59' W 005°31'1313.0
2015-Jul-02 22:33N 54°48' W 005°17'1111.2
2015-Jul-02 21:33N 54°38' W 005°08'1212.1
2015-Jul-02 20:33N 54°26' W 005°11'1212.0
2015-Jul-02 19:33N 54°15' W 005°13'1312.8
2015-Jul-02 18:33N 54°02' W 005°16'8711.6
2015-Jul-02 11:04N 52°35' W 005°36'813.3
2015-Jul-02 10:29N 52°28' W 005°37'1313.9
2015-Jul-02 09:33N 52°15' W 005°40'27611.9
2015-Jul-01 10:26N 47°40' W 005°12'1211.6
2015-Jul-01 09:22N 47°33' W 004°57'1011.6
2015-Jul-01 08:29N 47°27' W 004°44'1211.8
2015-Jul-01 07:30N 47°21' W 004°30'1111.7
2015-Jul-01 06:33N 47°14' W 004°16'1511.0
2015-Jul-01 05:13N 47°07' W 003°58'710.8
2015-Jul-01 04:33N 47°03' W 003°49'1010.5
2015-Jul-01 03:33N 46°57' W 003°36'1110.7
2015-Jul-01 02:33N 46°52' W 003°23'1111.1
2015-Jul-01 01:34N 46°46' W 003°09'1110.8
2015-Jul-01 00:33N 46°40' W 002°56'1111.0
2015-Jun-30 23:33N 46°34' W 002°43'1311.1
2015-Jun-30 22:25N 46°27' W 002°27'1111.4
2015-Jun-30 21:30N 46°22' W 002°14'1111.5
2015-Jun-30 20:34N 46°16' W 002°01'9 8.6
2015-Jun-30 19:33N 46°12' W 001°50'0 0.1
2015-Jun-30 18:33N 46°12' W 001°50'0 0.1
2015-Jun-30 17:34N 46°12' W 001°50'0 0.0
2015-Jun-30 16:33N 46°12' W 001°50'0 0.0
2015-Jun-30 15:33N 46°12' W 001°49'0 0.1
2015-Jun-30 14:34N 46°12' W 001°50'1 0.6
2015-Jun-30 13:33N 46°12' W 001°50'1 1.0
2015-Jun-30 12:34N 46°12' W 001°52'8 8.3
2015-Jun-30 11:33N 46°08' W 001°41'1110.7
2015-Jun-30 10:33N 46°07' W 001°26'8 7.8
2015-Jun-30 09:34N 46°08' W 001°15'2 1.7
2015-Jun-30 08:33N 46°10' W 001°14'0 0.0
2015-Jun-30 07:33N 46°10' W 001°14'0 0.0
2015-Jun-30 06:33N 46°10' W 001°14'0 0.0
2015-Jun-30 05:33N 46°10' W 001°14'0 0.0
2015-Jun-30 04:33N 46°10' W 001°14'0 0.0
2015-Jun-30 03:33N 46°10' W 001°14'0 0.0
2015-Jun-30 02:33N 46°10' W 001°14'0 0.0
2015-Jun-30 01:33N 46°10' W 001°14'0 0.0
2015-Jun-30 00:33N 46°10' W 001°14'0 0.0
2015-Jun-29 23:33N 46°10' W 001°14'0 0.0
2015-Jun-29 22:27N 46°10' W 001°14'0 0.0
2015-Jun-29 21:33N 46°10' W 001°14'0 0.0
2015-Jun-29 20:33N 46°10' W 001°14'0 0.0
2015-Jun-29 19:33N 46°10' W 001°14'0 0.0
2015-Jun-29 18:33N 46°10' W 001°14'0 0.0
2015-Jun-29 17:27N 46°10' W 001°14'0 0.0
2015-Jun-29 16:33N 46°10' W 001°14'0 0.0
2015-Jun-29 15:33N 46°10' W 001°14'0 0.0
2015-Jun-29 14:33N 46°10' W 001°14'0 0.0
2015-Jun-29 13:33N 46°10' W 001°14'0 0.0
2015-Jun-29 12:27N 46°10' W 001°14'0 0.0
2015-Jun-29 11:33N 46°10' W 001°14'0 0.0
2015-Jun-29 10:33N 46°10' W 001°14'0 0.0
2015-Jun-29 09:30N 46°10' W 001°14'0 0.0
2015-Jun-29 08:33N 46°10' W 001°14'0 0.0
2015-Jun-29 07:33N 46°10' W 001°14'0 0.0
2015-Jun-29 06:33N 46°10' W 001°14'0 0.0
2015-Jun-29 05:33N 46°10' W 001°14'0 0.0
2015-Jun-29 04:33N 46°10' W 001°14'0 0.0
2015-Jun-29 03:33N 46°10' W 001°14'0 0.0
2015-Jun-29 02:33N 46°10' W 001°14'0 0.0
2015-Jun-29 01:33N 46°10' W 001°14'0 0.0
2015-Jun-29 00:33N 46°10' W 001°14'0 0.0
2015-Jun-28 23:33N 46°10' W 001°14'0 0.0
2015-Jun-28 22:33N 46°10' W 001°14'0 0.0
2015-Jun-28 21:33N 46°10' W 001°14'0 0.0
2015-Jun-28 20:33N 46°10' W 001°14'0 0.0
2015-Jun-28 19:33N 46°10' W 001°14'0 0.0
2015-Jun-28 18:33N 46°10' W 001°14'0 0.0
2015-Jun-28 17:33N 46°10' W 001°14'0 0.0
2015-Jun-28 16:33N 46°10' W 001°14'0 0.0
2015-Jun-28 15:33N 46°10' W 001°14'0 0.0
2015-Jun-28 14:33N 46°10' W 001°14'0 0.0
2015-Jun-28 13:33N 46°10' W 001°14'0 0.1
2015-Jun-28 12:33N 46°09' W 001°14'4 4.4
2015-Jun-28 11:31N 46°05' W 001°15'0 0.1
2015-Jun-28 10:31N 46°05' W 001°15'0 0.0
2015-Jun-28 09:31N 46°05' W 001°15'0 0.0
2015-Jun-28 08:31N 46°05' W 001°15'0 0.0
2015-Jun-28 07:31N 46°05' W 001°15'0 0.1
2015-Jun-28 06:31N 46°05' W 001°15'0 0.1
2015-Jun-28 05:28N 46°05' W 001°15'0 0.0
2015-Jun-28 04:31N 46°05' W 001°15'0 0.0
2015-Jun-28 03:31N 46°05' W 001°15'0 0.0
2015-Jun-28 02:31N 46°05' W 001°15'0 0.1
2015-Jun-28 01:31N 46°05' W 001°15'0 0.0
2015-Jun-28 00:31N 46°05' W 001°15'0 0.0
2015-Jun-27 23:31N 46°05' W 001°15'0 0.0
2015-Jun-27 22:31N 46°05' W 001°15'0 0.0
2015-Jun-27 21:31N 46°05' W 001°15'0 0.0
2015-Jun-27 20:31N 46°05' W 001°15'0 0.0
2015-Jun-27 19:31N 46°05' W 001°15'0 0.0
2015-Jun-27 18:28N 46°05' W 001°15'0 0.1
2015-Jun-27 17:31N 46°05' W 001°15'0 0.0
2015-Jun-27 16:31N 46°05' W 001°15'0 0.0
2015-Jun-27 15:31N 46°05' W 001°15'0 0.0
2015-Jun-27 14:31N 46°05' W 001°15'0 0.0
2015-Jun-27 13:31N 46°05' W 001°15'0 0.0
2015-Jun-27 12:31N 46°05' W 001°15'4 4.4
2015-Jun-27 11:33N 46°06' W 001°21'1212.1
2015-Jun-27 10:33N 46°08' W 001°39'1312.6
2015-Jun-27 09:33N 46°13' W 001°55'1312.9
2015-Jun-27 08:33N 46°20' W 002°11'1312.9
2015-Jun-27 07:32N 46°27' W 002°27'1313.4
2015-Jun-27 06:33N 46°34' W 002°44'1412.6
2015-Jun-27 05:26N 46°41' W 003°01'1112.6
2015-Jun-27 04:33N 46°48' W 003°14'1312.6
2015-Jun-27 03:33N 46°55' W 003°29'1312.7
2015-Jun-27 02:33N 47°01' W 003°45'1312.6
2015-Jun-27 01:33N 47°08' W 004°00'1312.8
2015-Jun-27 00:33N 47°15' W 004°16'1412.8
2015-Jun-26 23:28N 47°23' W 004°34'1512.8
2015-Jun-26 22:18N 47°31' W 004°52'22711.3
2015-Jun-26 02:11N 51°13' W 006°01'911.3
2015-Jun-26 01:24N 51°22' W 006°01'911.2
2015-Jun-26 00:33N 51°31' W 006°01'2611.6
2015-Jun-25 22:16N 51°57' W 005°52'912.8
2015-Jun-25 21:33N 52°06' W 005°51'1312.9
2015-Jun-25 20:33N 52°19' W 005°48'10611.8
2015-Jun-25 11:32N 54°04' W 005°24'1212.4
2015-Jun-25 10:33N 54°16' W 005°21'1212.0
2015-Jun-25 09:33N 54°28' W 005°18'1211.6
2015-Jun-25 08:33N 54°39' W 005°15'1111.4
2015-Jun-25 07:34N 54°49' W 005°26'1312.0
2015-Jun-25 06:31N 54°59' W 005°38'1212.2
2015-Jun-25 05:33N 55°08' W 005°50'1312.9
2015-Jun-25 04:33N 55°19' W 006°04'1312.8
2015-Jun-25 03:33N 55°27' W 006°21'1413.6
2015-Jun-25 02:33N 55°38' W 006°35'1414.1
2015-Jun-25 01:33N 55°50' W 006°49'19110.6
2015-Jun-24 07:28N 58°43' W 004°20'1212.7
2015-Jun-24 06:33N 58°43' W 003°57'1212.4
2015-Jun-24 05:33N 58°43' W 003°34'1212.2
2015-Jun-24 04:33N 58°43' W 003°10'9 9.1
2015-Jun-24 03:33N 58°38' W 002°56'1010.2
2015-Jun-24 02:33N 58°29' W 002°45'61 8.4
2015-Jun-23 19:20N 57°39' W 001°40'2 9.3
2015-Jun-23 19:05N 57°37' W 001°39'  
Track history (hours):
 
Tides and Currents Weather Stations Pressure Air Temp Water Temp Dewpoint Dewpoint Depression Visibility Wind Speed Wind Dir Waves Ship Positions

Amy-c

Last reported at 2015-Jul-03 05:17 UTC. Time now 2015-Jul-05 07:47 UTC.
Position N 55°18' W 006°44'.

Length 137 m; draft 8.6 m.

Type: Cargo ship. MMSI: 235010170.

Date/timePositionNaut miles runAvg speedWind from/ knotsBaromVisibWave heightAir tempDewpointWater temp
2015-Jul-03 05:17N 55°18' W 006°44'4 4.9
2015-Jul-03 04:33N 55°22' W 006°41'2 2.3
2015-Jul-03 03:33N 55°22' W 006°37'8 7.7
2015-Jul-03 02:34N 55°25' W 006°25'1414.0
2015-Jul-03 01:34N 55°23' W 006°01'1615.8
2015-Jul-03 00:34N 55°10' W 005°45'1414.1
2015-Jul-02 23:33N 54°59' W 005°31'1313.0
2015-Jul-02 22:33N 54°48' W 005°17'1111.2
2015-Jul-02 21:33N 54°38' W 005°08'1212.1
2015-Jul-02 20:33N 54°26' W 005°11'1212.0
2015-Jul-02 19:33N 54°15' W 005°13'1312.8
2015-Jul-02 18:33N 54°02' W 005°16'8711.6
2015-Jul-02 11:04N 52°35' W 005°36'813.3
2015-Jul-02 10:29N 52°28' W 005°37'1313.9
2015-Jul-02 09:33N 52°15' W 005°40'27611.9
2015-Jul-01 10:26N 47°40' W 005°12'1211.6
2015-Jul-01 09:22N 47°33' W 004°57'1011.6
2015-Jul-01 08:29N 47°27' W 004°44'1211.8
2015-Jul-01 07:30N 47°21' W 004°30'1111.7
2015-Jul-01 06:33N 47°14' W 004°16'1511.0
2015-Jul-01 05:13N 47°07' W 003°58'710.8
2015-Jul-01 04:33N 47°03' W 003°49'1010.5
2015-Jul-01 03:33N 46°57' W 003°36'1110.7
2015-Jul-01 02:33N 46°52' W 003°23'1111.1
2015-Jul-01 01:34N 46°46' W 003°09'1110.8
2015-Jul-01 00:33N 46°40' W 002°56'1111.0
2015-Jun-30 23:33N 46°34' W 002°43'1311.1
2015-Jun-30 22:25N 46°27' W 002°27'1111.4
2015-Jun-30 21:30N 46°22' W 002°14'1111.5
2015-Jun-30 20:34N 46°16' W 002°01'9 8.6
2015-Jun-30 19:33N 46°12' W 001°50'0 0.1
2015-Jun-30 18:33N 46°12' W 001°50'0 0.1
2015-Jun-30 17:34N 46°12' W 001°50'0 0.0
2015-Jun-30 16:33N 46°12' W 001°50'0 0.0
2015-Jun-30 15:33N 46°12' W 001°49'0 0.1
2015-Jun-30 14:34N 46°12' W 001°50'1 0.6
2015-Jun-30 13:33N 46°12' W 001°50'1 1.0
2015-Jun-30 12:34N 46°12' W 001°52'8 8.3
2015-Jun-30 11:33N 46°08' W 001°41'1110.7
2015-Jun-30 10:33N 46°07' W 001°26'8 7.8
2015-Jun-30 09:34N 46°08' W 001°15'2 1.7
2015-Jun-30 08:33N 46°10' W 001°14'0 0.0
2015-Jun-30 07:33N 46°10' W 001°14'0 0.0
2015-Jun-30 06:33N 46°10' W 001°14'0 0.0
2015-Jun-30 05:33N 46°10' W 001°14'0 0.0
2015-Jun-30 04:33N 46°10' W 001°14'0 0.0
2015-Jun-30 03:33N 46°10' W 001°14'0 0.0
2015-Jun-30 02:33N 46°10' W 001°14'0 0.0
2015-Jun-30 01:33N 46°10' W 001°14'0 0.0
2015-Jun-30 00:33N 46°10' W 001°14'0 0.0
2015-Jun-29 23:33N 46°10' W 001°14'0 0.0
2015-Jun-29 22:27N 46°10' W 001°14'0 0.0
2015-Jun-29 21:33N 46°10' W 001°14'0 0.0
2015-Jun-29 20:33N 46°10' W 001°14'0 0.0
2015-Jun-29 19:33N 46°10' W 001°14'0 0.0
2015-Jun-29 18:33N 46°10' W 001°14'0 0.0
2015-Jun-29 17:27N 46°10' W 001°14'0 0.0
2015-Jun-29 16:33N 46°10' W 001°14'0 0.0
2015-Jun-29 15:33N 46°10' W 001°14'0 0.0
2015-Jun-29 14:33N 46°10' W 001°14'0 0.0
2015-Jun-29 13:33N 46°10' W 001°14'0 0.0
2015-Jun-29 12:27N 46°10' W 001°14'0 0.0
2015-Jun-29 11:33N 46°10' W 001°14'0 0.0
2015-Jun-29 10:33N 46°10' W 001°14'0 0.0
2015-Jun-29 09:30N 46°10' W 001°14'0 0.0
2015-Jun-29 08:33N 46°10' W 001°14'0 0.0
2015-Jun-29 07:33N 46°10' W 001°14'0 0.0
2015-Jun-29 06:33N 46°10' W 001°14'0 0.0
2015-Jun-29 05:33N 46°10' W 001°14'0 0.0
2015-Jun-29 04:33N 46°10' W 001°14'0 0.0
2015-Jun-29 03:33N 46°10' W 001°14'0 0.0
2015-Jun-29 02:33N 46°10' W 001°14'0 0.0
2015-Jun-29 01:33N 46°10' W 001°14'0 0.0
2015-Jun-29 00:33N 46°10' W 001°14'0 0.0
2015-Jun-28 23:33N 46°10' W 001°14'0 0.0
2015-Jun-28 22:33N 46°10' W 001°14'0 0.0
2015-Jun-28 21:33N 46°10' W 001°14'0 0.0
2015-Jun-28 20:33N 46°10' W 001°14'0 0.0
2015-Jun-28 19:33N 46°10' W 001°14'0 0.0
2015-Jun-28 18:33N 46°10' W 001°14'0 0.0
2015-Jun-28 17:33N 46°10' W 001°14'0 0.0
2015-Jun-28 16:33N 46°10' W 001°14'0 0.0
2015-Jun-28 15:33N 46°10' W 001°14'0 0.0
2015-Jun-28 14:33N 46°10' W 001°14'0 0.0
2015-Jun-28 13:33N 46°10' W 001°14'0 0.1
2015-Jun-28 12:33N 46°09' W 001°14'4 4.4
2015-Jun-28 11:31N 46°05' W 001°15'0 0.1
2015-Jun-28 10:31N 46°05' W 001°15'0 0.0
2015-Jun-28 09:31N 46°05' W 001°15'0 0.0
2015-Jun-28 08:31N 46°05' W 001°15'0 0.0
2015-Jun-28 07:31N 46°05' W 001°15'0 0.1
2015-Jun-28 06:31N 46°05' W 001°15'0 0.1
2015-Jun-28 05:28N 46°05' W 001°15'0 0.0
2015-Jun-28 04:31N 46°05' W 001°15'0 0.0
2015-Jun-28 03:31N 46°05' W 001°15'0 0.0
2015-Jun-28 02:31N 46°05' W 001°15'0 0.1
2015-Jun-28 01:31N 46°05' W 001°15'0 0.0
2015-Jun-28 00:31N 46°05' W 001°15'0 0.0
2015-Jun-27 23:31N 46°05' W 001°15'0 0.0
2015-Jun-27 22:31N 46°05' W 001°15'0 0.0
2015-Jun-27 21:31N 46°05' W 001°15'0 0.0
2015-Jun-27 20:31N 46°05' W 001°15'0 0.0
2015-Jun-27 19:31N 46°05' W 001°15'0 0.0
2015-Jun-27 18:28N 46°05' W 001°15'0 0.1
2015-Jun-27 17:31N 46°05' W 001°15'0 0.0
2015-Jun-27 16:31N 46°05' W 001°15'0 0.0
2015-Jun-27 15:31N 46°05' W 001°15'0 0.0
2015-Jun-27 14:31N 46°05' W 001°15'0 0.0
2015-Jun-27 13:31N 46°05' W 001°15'0 0.0
2015-Jun-27 12:31N 46°05' W 001°15'4 4.4
2015-Jun-27 11:33N 46°06' W 001°21'1212.1
2015-Jun-27 10:33N 46°08' W 001°39'1312.6
2015-Jun-27 09:33N 46°13' W 001°55'1312.9
2015-Jun-27 08:33N 46°20' W 002°11'1312.9
2015-Jun-27 07:32N 46°27' W 002°27'1313.4
2015-Jun-27 06:33N 46°34' W 002°44'1412.6
2015-Jun-27 05:26N 46°41' W 003°01'1112.6
2015-Jun-27 04:33N 46°48' W 003°14'1312.6
2015-Jun-27 03:33N 46°55' W 003°29'1312.7
2015-Jun-27 02:33N 47°01' W 003°45'1312.6
2015-Jun-27 01:33N 47°08' W 004°00'1312.8
2015-Jun-27 00:33N 47°15' W 004°16'1412.8
2015-Jun-26 23:28N 47°23' W 004°34'1512.8
2015-Jun-26 22:18N 47°31' W 004°52'22711.3
2015-Jun-26 02:11N 51°13' W 006°01'911.3
2015-Jun-26 01:24N 51°22' W 006°01'911.2
2015-Jun-26 00:33N 51°31' W 006°01'2611.6
2015-Jun-25 22:16N 51°57' W 005°52'912.8
2015-Jun-25 21:33N 52°06' W 005°51'1312.9
2015-Jun-25 20:33N 52°19' W 005°48'10611.8
2015-Jun-25 11:32N 54°04' W 005°24'1212.4
2015-Jun-25 10:33N 54°16' W 005°21'1212.0
2015-Jun-25 09:33N 54°28' W 005°18'1211.6
2015-Jun-25 08:33N 54°39' W 005°15'1111.4
2015-Jun-25 07:34N 54°49' W 005°26'1312.0
2015-Jun-25 06:31N 54°59' W 005°38'1212.2
2015-Jun-25 05:33N 55°08' W 005°50'1312.9
2015-Jun-25 04:33N 55°19' W 006°04'1312.8
2015-Jun-25 03:33N 55°27' W 006°21'1413.6
2015-Jun-25 02:33N 55°38' W 006°35'1414.1
2015-Jun-25 01:33N 55°50' W 006°49'19110.6
2015-Jun-24 07:28N 58°43' W 004°20'1212.7
2015-Jun-24 06:33N 58°43' W 003°57'1212.4
2015-Jun-24 05:33N 58°43' W 003°34'1212.2
2015-Jun-24 04:33N 58°43' W 003°10'9 9.1
2015-Jun-24 03:33N 58°38' W 002°56'1010.2
2015-Jun-24 02:33N 58°29' W 002°45'61 8.4
2015-Jun-23 19:20N 57°39' W 001°40'2 9.3
2015-Jun-23 19:05N 57°37' W 001°39'  

Dump ship's entire track history